sensor_id;sensor_type;location;lat;lon;timestamp;P1;durP1;ratioP1;P2;durP2;ratioP2
77524;SDS011;66638;50.050;21.124;2023-02-11T00:01:41;20.20;;;9.60;;
77524;SDS011;66638;50.050;21.124;2023-02-11T00:04:29;18.10;;;9.00;;
77524;SDS011;66638;50.050;21.124;2023-02-11T00:07:17;18.60;;;8.40;;
77524;SDS011;66638;50.050;21.124;2023-02-11T00:10:07;14.60;;;7.80;;
77524;SDS011;66638;50.050;21.124;2023-02-11T00:12:58;14.30;;;6.90;;
77524;SDS011;66638;50.050;21.124;2023-02-11T00:15:46;14.40;;;5.90;;
77524;SDS011;66638;50.050;21.124;2023-02-11T00:18:35;15.70;;;6.50;;
77524;SDS011;66638;50.050;21.124;2023-02-11T00:21:25;15.70;;;6.90;;
77524;SDS011;66638;50.050;21.124;2023-02-11T00:24:13;14.70;;;7.60;;
77524;SDS011;66638;50.050;21.124;2023-02-11T00:27:02;17.90;;;8.00;;
77524;SDS011;66638;50.050;21.124;2023-02-11T00:29:53;19.60;;;7.70;;
77524;SDS011;66638;50.050;21.124;2023-02-11T00:32:44;16.70;;;7.60;;
77524;SDS011;66638;50.050;21.124;2023-02-11T00:35:37;18.40;;;8.90;;
77524;SDS011;66638;50.050;21.124;2023-02-11T00:38:26;15.80;;;8.00;;
77524;SDS011;66638;50.050;21.124;2023-02-11T00:41:13;16.80;;;7.60;;
77524;SDS011;66638;50.050;21.124;2023-02-11T00:44:01;16.40;;;6.80;;
77524;SDS011;66638;50.050;21.124;2023-02-11T00:46:52;19.00;;;8.50;;
77524;SDS011;66638;50.050;21.124;2023-02-11T00:49:43;12.20;;;6.20;;
77524;SDS011;66638;50.050;21.124;2023-02-11T00:52:36;13.10;;;7.00;;
77524;SDS011;66638;50.050;21.124;2023-02-11T00:55:26;16.30;;;7.00;;
77524;SDS011;66638;50.050;21.124;2023-02-11T00:58:15;13.80;;;6.40;;
77524;SDS011;66638;50.050;21.124;2023-02-11T01:01:06;16.10;;;5.50;;
77524;SDS011;66638;50.050;21.124;2023-02-11T01:03:53;13.80;;;6.40;;
77524;SDS011;66638;50.050;21.124;2023-02-11T01:06:44;16.00;;;7.00;;
77524;SDS011;66638;50.050;21.124;2023-02-11T01:09:33;13.60;;;6.50;;
77524;SDS011;66638;50.050;21.124;2023-02-11T01:12:26;14.70;;;7.40;;
77524;SDS011;66638;50.050;21.124;2023-02-11T01:15:13;13.40;;;6.10;;
77524;SDS011;66638;50.050;21.124;2023-02-11T01:18:03;13.20;;;6.10;;
77524;SDS011;66638;50.050;21.124;2023-02-11T01:20:52;17.70;;;7.20;;
77524;SDS011;66638;50.050;21.124;2023-02-11T01:23:40;18.50;;;7.90;;
77524;SDS011;66638;50.050;21.124;2023-02-11T01:26:27;15.40;;;7.90;;
77524;SDS011;66638;50.050;21.124;2023-02-11T01:32:02;17.10;;;8.40;;
77524;SDS011;66638;50.050;21.124;2023-02-11T01:34:49;19.50;;;7.20;;
77524;SDS011;66638;50.050;21.124;2023-02-11T01:37:36;16.60;;;8.30;;
77524;SDS011;66638;50.050;21.124;2023-02-11T01:40:24;16.10;;;8.20;;
77524;SDS011;66638;50.050;21.124;2023-02-11T01:43:11;17.80;;;8.40;;
77524;SDS011;66638;50.050;21.124;2023-02-11T01:49:25;18.70;;;8.50;;
77524;SDS011;66638;50.050;21.124;2023-02-11T01:52:17;15.30;;;8.10;;
77524;SDS011;66638;50.050;21.124;2023-02-11T01:55:16;20.60;;;8.80;;
77524;SDS011;66638;50.050;21.124;2023-02-11T01:58:23;19.60;;;8.30;;
77524;SDS011;66638;50.050;21.124;2023-02-11T02:01:13;19.20;;;8.20;;
77524;SDS011;66638;50.050;21.124;2023-02-11T02:04:03;14.80;;;7.70;;
77524;SDS011;66638;50.050;21.124;2023-02-11T02:07:00;18.80;;;9.50;;
77524;SDS011;66638;50.050;21.124;2023-02-11T02:09:57;22.80;;;10.00;;
77524;SDS011;66638;50.050;21.124;2023-02-11T02:12:51;17.40;;;9.40;;
77524;SDS011;66638;50.050;21.124;2023-02-11T02:15:47;21.50;;;9.40;;
77524;SDS011;66638;50.050;21.124;2023-02-11T02:18:46;20.10;;;10.00;;
77524;SDS011;66638;50.050;21.124;2023-02-11T02:21:52;18.40;;;9.80;;
77524;SDS011;66638;50.050;21.124;2023-02-11T02:28:31;20.60;;;11.50;;
77524;SDS011;66638;50.050;21.124;2023-02-11T02:31:53;21.50;;;9.80;;
77524;SDS011;66638;50.050;21.124;2023-02-11T02:34:52;21.60;;;10.90;;
77524;SDS011;66638;50.050;21.124;2023-02-11T02:41:15;23.30;;;10.70;;
77524;SDS011;66638;50.050;21.124;2023-02-11T02:44:04;23.80;;;11.30;;
77524;SDS011;66638;50.050;21.124;2023-02-11T02:46:54;21.60;;;11.80;;
77524;SDS011;66638;50.050;21.124;2023-02-11T02:49:41;22.60;;;11.50;;
77524;SDS011;66638;50.050;21.124;2023-02-11T02:52:38;23.50;;;10.90;;
77524;SDS011;66638;50.050;21.124;2023-02-11T02:59:12;24.30;;;11.10;;
77524;SDS011;66638;50.050;21.124;2023-02-11T03:02:13;19.40;;;11.00;;
77524;SDS011;66638;50.050;21.124;2023-02-11T03:05:09;23.80;;;11.30;;
77524;SDS011;66638;50.050;21.124;2023-02-11T03:08:15;30.00;;;13.70;;
77524;SDS011;66638;50.050;21.124;2023-02-11T03:11:09;27.20;;;13.30;;
77524;SDS011;66638;50.050;21.124;2023-02-11T03:14:00;23.30;;;12.20;;
77524;SDS011;66638;50.050;21.124;2023-02-11T03:16:50;27.50;;;12.70;;
77524;SDS011;66638;50.050;21.124;2023-02-11T03:19:39;20.50;;;12.00;;
77524;SDS011;66638;50.050;21.124;2023-02-11T03:22:37;21.00;;;10.90;;
77524;SDS011;66638;50.050;21.124;2023-02-11T03:25:29;24.20;;;12.40;;
77524;SDS011;66638;50.050;21.124;2023-02-11T03:28:25;28.20;;;13.90;;
77524;SDS011;66638;50.050;21.124;2023-02-11T03:31:28;28.90;;;13.10;;
77524;SDS011;66638;50.050;21.124;2023-02-11T03:34:32;24.00;;;11.60;;
77524;SDS011;66638;50.050;21.124;2023-02-11T03:37:29;22.70;;;11.80;;
77524;SDS011;66638;50.050;21.124;2023-02-11T03:43:37;27.20;;;12.70;;
77524;SDS011;66638;50.050;21.124;2023-02-11T03:46:35;23.30;;;12.80;;
77524;SDS011;66638;50.050;21.124;2023-02-11T03:49:25;27.10;;;12.60;;
77524;SDS011;66638;50.050;21.124;2023-02-11T03:52:14;27.50;;;13.60;;
77524;SDS011;66638;50.050;21.124;2023-02-11T03:55:06;27.30;;;13.40;;
77524;SDS011;66638;50.050;21.124;2023-02-11T03:57:56;19.50;;;10.90;;
77524;SDS011;66638;50.050;21.124;2023-02-11T04:00:44;25.80;;;12.00;;
77524;SDS011;66638;50.050;21.124;2023-02-11T04:03:31;20.90;;;11.30;;
77524;SDS011;66638;50.050;21.124;2023-02-11T04:09:06;15.00;;;7.70;;
77524;SDS011;66638;50.050;21.124;2023-02-11T04:11:56;15.30;;;7.80;;
77524;SDS011;66638;50.050;21.124;2023-02-11T04:14:47;23.00;;;11.00;;
77524;SDS011;66638;50.050;21.124;2023-02-11T04:17:34;24.90;;;11.40;;
77524;SDS011;66638;50.050;21.124;2023-02-11T04:23:08;24.40;;;12.60;;
77524;SDS011;66638;50.050;21.124;2023-02-11T04:25:57;20.70;;;10.40;;
77524;SDS011;66638;50.050;21.124;2023-02-11T04:28:45;20.10;;;11.00;;
77524;SDS011;66638;50.050;21.124;2023-02-11T04:31:32;19.60;;;11.00;;
77524;SDS011;66638;50.050;21.124;2023-02-11T04:34:20;21.30;;;11.20;;
77524;SDS011;66638;50.050;21.124;2023-02-11T04:37:08;23.90;;;12.00;;
77524;SDS011;66638;50.050;21.124;2023-02-11T04:39:56;24.60;;;13.10;;
77524;SDS011;66638;50.050;21.124;2023-02-11T04:42:43;24.10;;;11.40;;
77524;SDS011;66638;50.050;21.124;2023-02-11T04:45:34;22.10;;;11.50;;
77524;SDS011;66638;50.050;21.124;2023-02-11T04:51:08;20.80;;;11.80;;
77524;SDS011;66638;50.050;21.124;2023-02-11T04:53:55;17.20;;;8.90;;
77524;SDS011;66638;50.050;21.124;2023-02-11T04:56:43;28.00;;;12.50;;
77524;SDS011;66638;50.050;21.124;2023-02-11T04:59:30;24.40;;;13.00;;
77524;SDS011;66638;50.050;21.124;2023-02-11T05:02:17;59.80;;;25.20;;
77524;SDS011;66638;50.050;21.124;2023-02-11T05:05:06;34.70;;;16.10;;
77524;SDS011;66638;50.050;21.124;2023-02-11T05:07:54;24.80;;;13.20;;
77524;SDS011;66638;50.050;21.124;2023-02-11T05:10:44;25.10;;;13.80;;
77524;SDS011;66638;50.050;21.124;2023-02-11T05:13:34;26.80;;;14.20;;
77524;SDS011;66638;50.050;21.124;2023-02-11T05:16:23;32.80;;;16.90;;
77524;SDS011;66638;50.050;21.124;2023-02-11T05:21:59;22.80;;;12.80;;
77524;SDS011;66638;50.050;21.124;2023-02-11T05:24:48;19.30;;;9.30;;
77524;SDS011;66638;50.050;21.124;2023-02-11T05:27:39;21.40;;;11.10;;
77524;SDS011;66638;50.050;21.124;2023-02-11T05:30:26;27.50;;;12.40;;
77524;SDS011;66638;50.050;21.124;2023-02-11T05:36:02;21.50;;;12.10;;
77524;SDS011;66638;50.050;21.124;2023-02-11T05:38:51;23.90;;;11.90;;
77524;SDS011;66638;50.050;21.124;2023-02-11T05:41:41;24.10;;;11.00;;
77524;SDS011;66638;50.050;21.124;2023-02-11T05:44:28;27.60;;;13.80;;
77524;SDS011;66638;50.050;21.124;2023-02-11T05:47:16;20.70;;;13.00;;
77524;SDS011;66638;50.050;21.124;2023-02-11T05:50:03;136.30;;;70.30;;
77524;SDS011;66638;50.050;21.124;2023-02-11T05:52:50;28.10;;;15.00;;
77524;SDS011;66638;50.050;21.124;2023-02-11T05:55:43;24.60;;;12.50;;
77524;SDS011;66638;50.050;21.124;2023-02-11T05:58:31;34.50;;;15.30;;
77524;SDS011;66638;50.050;21.124;2023-02-11T06:01:19;22.80;;;11.60;;
77524;SDS011;66638;50.050;21.124;2023-02-11T06:04:06;20.70;;;12.20;;
77524;SDS011;66638;50.050;21.124;2023-02-11T06:06:53;17.70;;;9.80;;
77524;SDS011;66638;50.050;21.124;2023-02-11T06:09:41;15.20;;;8.50;;
77524;SDS011;66638;50.050;21.124;2023-02-11T06:12:28;15.70;;;7.70;;
77524;SDS011;66638;50.050;21.124;2023-02-11T06:15:18;15.60;;;6.60;;
77524;SDS011;66638;50.050;21.124;2023-02-11T06:18:06;20.90;;;10.90;;
77524;SDS011;66638;50.050;21.124;2023-02-11T06:20:54;14.40;;;7.80;;
77524;SDS011;66638;50.050;21.124;2023-02-11T06:23:41;15.60;;;9.30;;
77524;SDS011;66638;50.050;21.124;2023-02-11T06:26:29;21.80;;;11.00;;
77524;SDS011;66638;50.050;21.124;2023-02-11T06:29:16;22.10;;;11.50;;
77524;SDS011;66638;50.050;21.124;2023-02-11T06:34:51;22.40;;;11.20;;
77524;SDS011;66638;50.050;21.124;2023-02-11T06:37:39;22.70;;;11.70;;
77524;SDS011;66638;50.050;21.124;2023-02-11T06:40:27;22.30;;;12.20;;
77524;SDS011;66638;50.050;21.124;2023-02-11T06:43:16;23.30;;;12.70;;
77524;SDS011;66638;50.050;21.124;2023-02-11T06:48:51;21.60;;;11.20;;
77524;SDS011;66638;50.050;21.124;2023-02-11T06:51:39;22.80;;;12.30;;
77524;SDS011;66638;50.050;21.124;2023-02-11T06:54:26;17.60;;;10.80;;
77524;SDS011;66638;50.050;21.124;2023-02-11T06:57:13;21.30;;;10.30;;
77524;SDS011;66638;50.050;21.124;2023-02-11T07:00:01;18.80;;;10.10;;
77524;SDS011;66638;50.050;21.124;2023-02-11T07:02:49;15.90;;;7.90;;
77524;SDS011;66638;50.050;21.124;2023-02-11T07:05:36;19.40;;;10.10;;
77524;SDS011;66638;50.050;21.124;2023-02-11T07:08:24;21.00;;;11.30;;
77524;SDS011;66638;50.050;21.124;2023-02-11T07:11:12;19.60;;;10.40;;
77524;SDS011;66638;50.050;21.124;2023-02-11T07:14:05;26.30;;;14.70;;
77524;SDS011;66638;50.050;21.124;2023-02-11T07:16:59;18.40;;;10.00;;
77524;SDS011;66638;50.050;21.124;2023-02-11T07:19:47;22.60;;;10.60;;
77524;SDS011;66638;50.050;21.124;2023-02-11T07:22:34;25.30;;;11.50;;
77524;SDS011;66638;50.050;21.124;2023-02-11T07:28:08;14.30;;;8.80;;
77524;SDS011;66638;50.050;21.124;2023-02-11T07:30:55;25.70;;;11.90;;
77524;SDS011;66638;50.050;21.124;2023-02-11T07:33:43;15.50;;;9.40;;
77524;SDS011;66638;50.050;21.124;2023-02-11T07:36:31;22.60;;;11.90;;
77524;SDS011;66638;50.050;21.124;2023-02-11T07:39:19;20.90;;;12.50;;
77524;SDS011;66638;50.050;21.124;2023-02-11T07:42:08;25.10;;;11.50;;
77524;SDS011;66638;50.050;21.124;2023-02-11T07:44:55;22.30;;;11.80;;
77524;SDS011;66638;50.050;21.124;2023-02-11T07:47:43;21.10;;;11.40;;
77524;SDS011;66638;50.050;21.124;2023-02-11T07:50:35;24.50;;;13.30;;
77524;SDS011;66638;50.050;21.124;2023-02-11T07:53:22;18.80;;;10.30;;
77524;SDS011;66638;50.050;21.124;2023-02-11T07:58:59;24.50;;;13.70;;
77524;SDS011;66638;50.050;21.124;2023-02-11T08:01:47;27.90;;;16.80;;
77524;SDS011;66638;50.050;21.124;2023-02-11T08:04:37;25.40;;;13.50;;
77524;SDS011;66638;50.050;21.124;2023-02-11T08:07:24;29.00;;;17.00;;
77524;SDS011;66638;50.050;21.124;2023-02-11T08:10:12;31.60;;;16.50;;
77524;SDS011;66638;50.050;21.124;2023-02-11T08:12:59;29.60;;;17.20;;
77524;SDS011;66638;50.050;21.124;2023-02-11T08:15:48;23.10;;;13.60;;
77524;SDS011;66638;50.050;21.124;2023-02-11T08:18:37;23.70;;;13.60;;
77524;SDS011;66638;50.050;21.124;2023-02-11T08:21:24;25.70;;;12.40;;
77524;SDS011;66638;50.050;21.124;2023-02-11T08:24:12;22.30;;;12.60;;
77524;SDS011;66638;50.050;21.124;2023-02-11T08:26:59;23.80;;;13.60;;
77524;SDS011;66638;50.050;21.124;2023-02-11T08:29:46;21.30;;;13.00;;
77524;SDS011;66638;50.050;21.124;2023-02-11T08:32:34;42.20;;;24.20;;
77524;SDS011;66638;50.050;21.124;2023-02-11T08:35:21;26.50;;;16.00;;
77524;SDS011;66638;50.050;21.124;2023-02-11T08:38:09;44.80;;;22.60;;
77524;SDS011;66638;50.050;21.124;2023-02-11T08:40:58;55.40;;;27.30;;
77524;SDS011;66638;50.050;21.124;2023-02-11T08:43:46;48.50;;;26.10;;
77524;SDS011;66638;50.050;21.124;2023-02-11T08:46:35;34.80;;;19.40;;
77524;SDS011;66638;50.050;21.124;2023-02-11T08:49:22;28.40;;;16.10;;
77524;SDS011;66638;50.050;21.124;2023-02-11T08:52:09;24.20;;;14.10;;
77524;SDS011;66638;50.050;21.124;2023-02-11T08:54:56;27.90;;;18.10;;
77524;SDS011;66638;50.050;21.124;2023-02-11T08:57:45;20.10;;;13.40;;
77524;SDS011;66638;50.050;21.124;2023-02-11T09:00:32;24.30;;;16.50;;
77524;SDS011;66638;50.050;21.124;2023-02-11T09:03:20;54.30;;;44.40;;
77524;SDS011;66638;50.050;21.124;2023-02-11T09:06:08;172.60;;;120.40;;
77524;SDS011;66638;50.050;21.124;2023-02-11T09:08:56;127.30;;;76.30;;
77524;SDS011;66638;50.050;21.124;2023-02-11T09:11:47;54.30;;;36.40;;
77524;SDS011;66638;50.050;21.124;2023-02-11T09:14:34;52.40;;;37.60;;
77524;SDS011;66638;50.050;21.124;2023-02-11T09:17:23;22.30;;;17.30;;
77524;SDS011;66638;50.050;21.124;2023-02-11T09:20:10;21.30;;;16.70;;
77524;SDS011;66638;50.050;21.124;2023-02-11T09:22:58;20.90;;;16.70;;
77524;SDS011;66638;50.050;21.124;2023-02-11T09:25:45;22.90;;;18.20;;
77524;SDS011;66638;50.050;21.124;2023-02-11T09:28:36;20.40;;;16.30;;
77524;SDS011;66638;50.050;21.124;2023-02-11T09:31:24;21.90;;;17.70;;
77524;SDS011;66638;50.050;21.124;2023-02-11T09:34:12;21.50;;;17.60;;
77524;SDS011;66638;50.050;21.124;2023-02-11T09:37:00;22.50;;;18.80;;
77524;SDS011;66638;50.050;21.124;2023-02-11T09:39:47;22.90;;;18.70;;
77524;SDS011;66638;50.050;21.124;2023-02-11T09:45:52;20.70;;;17.50;;
77524;SDS011;66638;50.050;21.124;2023-02-11T09:48:41;30.40;;;23.30;;
77524;SDS011;66638;50.050;21.124;2023-02-11T09:51:36;30.10;;;21.20;;
77524;SDS011;66638;50.050;21.124;2023-02-11T09:54:33;32.50;;;24.90;;
77524;SDS011;66638;50.050;21.124;2023-02-11T09:57:30;29.30;;;22.00;;
77524;SDS011;66638;50.050;21.124;2023-02-11T10:00:30;22.80;;;20.30;;
77524;SDS011;66638;50.050;21.124;2023-02-11T10:06:54;19.30;;;14.90;;
77524;SDS011;66638;50.050;21.124;2023-02-11T10:09:56;18.90;;;13.30;;
77524;SDS011;66638;50.050;21.124;2023-02-11T10:19:11;20.60;;;13.20;;
77524;SDS011;66638;50.050;21.124;2023-02-11T10:22:07;23.10;;;13.10;;
77524;SDS011;66638;50.050;21.124;2023-02-11T10:25:05;26.20;;;14.50;;
77524;SDS011;66638;50.050;21.124;2023-02-11T10:28:12;19.50;;;12.40;;
77524;SDS011;66638;50.050;21.124;2023-02-11T10:31:03;23.40;;;12.10;;
77524;SDS011;66638;50.050;21.124;2023-02-11T10:37:01;22.60;;;13.70;;
77524;SDS011;66638;50.050;21.124;2023-02-11T10:39:48;21.60;;;11.30;;
77524;SDS011;66638;50.050;21.124;2023-02-11T10:42:35;20.90;;;12.20;;
77524;SDS011;66638;50.050;21.124;2023-02-11T10:45:24;19.00;;;10.70;;
77524;SDS011;66638;50.050;21.124;2023-02-11T10:51:29;21.10;;;11.70;;
77524;SDS011;66638;50.050;21.124;2023-02-11T10:54:21;20.10;;;11.30;;
77524;SDS011;66638;50.050;21.124;2023-02-11T10:57:15;28.60;;;13.30;;
77524;SDS011;66638;50.050;21.124;2023-02-11T11:03:38;19.30;;;10.90;;
77524;SDS011;66638;50.050;21.124;2023-02-11T11:06:31;22.00;;;11.10;;
77524;SDS011;66638;50.050;21.124;2023-02-11T11:09:29;21.80;;;11.80;;
77524;SDS011;66638;50.050;21.124;2023-02-11T11:12:26;18.90;;;10.90;;
77524;SDS011;66638;50.050;21.124;2023-02-11T11:15:21;21.10;;;11.20;;
77524;SDS011;66638;50.050;21.124;2023-02-11T11:18:14;19.90;;;11.20;;
77524;SDS011;66638;50.050;21.124;2023-02-11T11:21:04;22.10;;;12.00;;
77524;SDS011;66638;50.050;21.124;2023-02-11T11:23:57;22.80;;;12.10;;
77524;SDS011;66638;50.050;21.124;2023-02-11T11:26:50;19.30;;;12.20;;
77524;SDS011;66638;50.050;21.124;2023-02-11T11:29:45;19.60;;;11.40;;
77524;SDS011;66638;50.050;21.124;2023-02-11T11:32:34;18.20;;;10.60;;
77524;SDS011;66638;50.050;21.124;2023-02-11T11:35:24;17.20;;;9.90;;
77524;SDS011;66638;50.050;21.124;2023-02-11T11:47:21;20.30;;;10.60;;
77524;SDS011;66638;50.050;21.124;2023-02-11T11:50:34;18.70;;;11.50;;
77524;SDS011;66638;50.050;21.124;2023-02-11T11:59:53;20.70;;;13.30;;
77524;SDS011;66638;50.050;21.124;2023-02-11T12:02:54;19.80;;;10.80;;
77524;SDS011;66638;50.050;21.124;2023-02-11T12:09:34;19.20;;;10.70;;
77524;SDS011;66638;50.050;21.124;2023-02-11T12:16:18;21.50;;;10.70;;
77524;SDS011;66638;50.050;21.124;2023-02-11T12:22:33;17.50;;;11.60;;
77524;SDS011;66638;50.050;21.124;2023-02-11T12:28:59;19.80;;;11.00;;
77524;SDS011;66638;50.050;21.124;2023-02-11T12:42:19;18.60;;;11.10;;
77524;SDS011;66638;50.050;21.124;2023-02-11T12:46:14;19.10;;;10.20;;
77524;SDS011;66638;50.050;21.124;2023-02-11T12:49:24;16.70;;;9.90;;
77524;SDS011;66638;50.050;21.124;2023-02-11T12:52:31;19.30;;;10.40;;
77524;SDS011;66638;50.050;21.124;2023-02-11T12:55:29;21.70;;;10.90;;
77524;SDS011;66638;50.050;21.124;2023-02-11T12:58:23;21.50;;;10.10;;
77524;SDS011;66638;50.050;21.124;2023-02-11T13:01:18;29.00;;;13.00;;
77524;SDS011;66638;50.050;21.124;2023-02-11T13:04:16;18.00;;;10.10;;
77524;SDS011;66638;50.050;21.124;2023-02-11T13:07:13;22.00;;;11.90;;
77524;SDS011;66638;50.050;21.124;2023-02-11T13:10:15;30.90;;;13.70;;
77524;SDS011;66638;50.050;21.124;2023-02-11T13:13:18;35.40;;;17.70;;
77524;SDS011;66638;50.050;21.124;2023-02-11T13:16:18;29.30;;;15.00;;
77524;SDS011;66638;50.050;21.124;2023-02-11T13:19:16;25.10;;;12.70;;
77524;SDS011;66638;50.050;21.124;2023-02-11T13:22:30;16.20;;;8.50;;
77524;SDS011;66638;50.050;21.124;2023-02-11T13:28:47;22.00;;;11.20;;
77524;SDS011;66638;50.050;21.124;2023-02-11T13:31:39;21.00;;;11.20;;
77524;SDS011;66638;50.050;21.124;2023-02-11T13:37:41;23.90;;;11.10;;
77524;SDS011;66638;50.050;21.124;2023-02-11T13:40:34;18.10;;;9.50;;
77524;SDS011;66638;50.050;21.124;2023-02-11T13:43:24;26.90;;;12.50;;
77524;SDS011;66638;50.050;21.124;2023-02-11T13:46:19;23.80;;;14.00;;
77524;SDS011;66638;50.050;21.124;2023-02-11T13:49:14;12.30;;;7.50;;
77524;SDS011;66638;50.050;21.124;2023-02-11T13:55:19;20.90;;;10.30;;
77524;SDS011;66638;50.050;21.124;2023-02-11T13:58:17;22.60;;;11.70;;
77524;SDS011;66638;50.050;21.124;2023-02-11T14:08:51;19.30;;;9.20;;
77524;SDS011;66638;50.050;21.124;2023-02-11T14:11:48;19.20;;;10.60;;
77524;SDS011;66638;50.050;21.124;2023-02-11T14:14:56;22.20;;;11.70;;
77524;SDS011;66638;50.050;21.124;2023-02-11T14:17:45;20.90;;;11.00;;
77524;SDS011;66638;50.050;21.124;2023-02-11T14:23:23;26.20;;;12.20;;
77524;SDS011;66638;50.050;21.124;2023-02-11T14:26:25;23.40;;;12.60;;
77524;SDS011;66638;50.050;21.124;2023-02-11T14:29:26;24.40;;;12.10;;
77524;SDS011;66638;50.050;21.124;2023-02-11T14:38:59;25.70;;;13.50;;
77524;SDS011;66638;50.050;21.124;2023-02-11T14:42:16;33.70;;;17.40;;
77524;SDS011;66638;50.050;21.124;2023-02-11T14:45:06;47.70;;;32.50;;
77524;SDS011;66638;50.050;21.124;2023-02-11T14:48:05;21.20;;;12.10;;
77524;SDS011;66638;50.050;21.124;2023-02-11T14:50:59;29.30;;;14.40;;
77524;SDS011;66638;50.050;21.124;2023-02-11T14:53:50;20.30;;;12.40;;
77524;SDS011;66638;50.050;21.124;2023-02-11T14:56:39;23.50;;;13.90;;
77524;SDS011;66638;50.050;21.124;2023-02-11T14:59:27;28.90;;;14.10;;
77524;SDS011;66638;50.050;21.124;2023-02-11T15:02:19;25.70;;;14.00;;
77524;SDS011;66638;50.050;21.124;2023-02-11T15:05:13;28.50;;;14.90;;
77524;SDS011;66638;50.050;21.124;2023-02-11T15:08:03;29.10;;;14.30;;
77524;SDS011;66638;50.050;21.124;2023-02-11T15:10:51;30.20;;;16.20;;
77524;SDS011;66638;50.050;21.124;2023-02-11T15:13:39;38.10;;;20.00;;
77524;SDS011;66638;50.050;21.124;2023-02-11T15:16:38;32.00;;;18.60;;
77524;SDS011;66638;50.050;21.124;2023-02-11T15:22:27;27.90;;;15.00;;
77524;SDS011;66638;50.050;21.124;2023-02-11T15:25:16;43.20;;;38.10;;
77524;SDS011;66638;50.050;21.124;2023-02-11T15:28:10;37.40;;;17.90;;
77524;SDS011;66638;50.050;21.124;2023-02-11T15:31:14;30.50;;;16.20;;
77524;SDS011;66638;50.050;21.124;2023-02-11T15:34:06;33.40;;;18.50;;
77524;SDS011;66638;50.050;21.124;2023-02-11T15:36:55;39.30;;;19.70;;
77524;SDS011;66638;50.050;21.124;2023-02-11T15:39:43;34.40;;;19.40;;
77524;SDS011;66638;50.050;21.124;2023-02-11T15:42:31;40.00;;;18.90;;
77524;SDS011;66638;50.050;21.124;2023-02-11T15:45:23;32.20;;;17.70;;
77524;SDS011;66638;50.050;21.124;2023-02-11T15:48:15;34.90;;;18.90;;
77524;SDS011;66638;50.050;21.124;2023-02-11T15:51:23;36.30;;;19.80;;
77524;SDS011;66638;50.050;21.124;2023-02-11T15:54:20;36.80;;;24.80;;
77524;SDS011;66638;50.050;21.124;2023-02-11T15:57:09;34.30;;;19.90;;
77524;SDS011;66638;50.050;21.124;2023-02-11T15:59:57;52.80;;;34.10;;
77524;SDS011;66638;50.050;21.124;2023-02-11T16:02:58;47.90;;;27.20;;
77524;SDS011;66638;50.050;21.124;2023-02-11T16:05:46;42.90;;;24.60;;
77524;SDS011;66638;50.050;21.124;2023-02-11T16:08:33;81.90;;;50.10;;
77524;SDS011;66638;50.050;21.124;2023-02-11T16:11:24;84.10;;;40.10;;
77524;SDS011;66638;50.050;21.124;2023-02-11T16:14:20;61.00;;;30.00;;
77524;SDS011;66638;50.050;21.124;2023-02-11T16:17:23;142.20;;;65.80;;
77524;SDS011;66638;50.050;21.124;2023-02-11T16:23:05;37.20;;;19.50;;
77524;SDS011;66638;50.050;21.124;2023-02-11T16:25:58;36.80;;;19.20;;
77524;SDS011;66638;50.050;21.124;2023-02-11T16:32:07;45.50;;;23.80;;
77524;SDS011;66638;50.050;21.124;2023-02-11T16:35:15;42.30;;;22.70;;
77524;SDS011;66638;50.050;21.124;2023-02-11T16:38:02;41.90;;;22.80;;
77524;SDS011;66638;50.050;21.124;2023-02-11T16:40:49;42.60;;;22.50;;
77524;SDS011;66638;50.050;21.124;2023-02-11T16:43:37;40.80;;;21.80;;
77524;SDS011;66638;50.050;21.124;2023-02-11T16:46:26;39.00;;;21.60;;
77524;SDS011;66638;50.050;21.124;2023-02-11T16:49:17;44.10;;;25.60;;
77524;SDS011;66638;50.050;21.124;2023-02-11T16:52:11;44.70;;;26.90;;
77524;SDS011;66638;50.050;21.124;2023-02-11T16:55:00;48.00;;;27.80;;
77524;SDS011;66638;50.050;21.124;2023-02-11T16:57:46;43.60;;;22.70;;
77524;SDS011;66638;50.050;21.124;2023-02-11T17:00:34;37.70;;;22.20;;
77524;SDS011;66638;50.050;21.124;2023-02-11T17:03:22;38.20;;;19.30;;
77524;SDS011;66638;50.050;21.124;2023-02-11T17:06:11;38.20;;;19.70;;
77524;SDS011;66638;50.050;21.124;2023-02-11T17:08:59;40.50;;;18.50;;
77524;SDS011;66638;50.050;21.124;2023-02-11T17:11:47;36.10;;;19.40;;
77524;SDS011;66638;50.050;21.124;2023-02-11T17:14:35;32.20;;;18.30;;
77524;SDS011;66638;50.050;21.124;2023-02-11T17:17:22;33.00;;;19.60;;
77524;SDS011;66638;50.050;21.124;2023-02-11T17:22:57;38.80;;;20.80;;
77524;SDS011;66638;50.050;21.124;2023-02-11T17:28:32;36.30;;;20.50;;
77524;SDS011;66638;50.050;21.124;2023-02-11T17:31:20;37.50;;;19.40;;
77524;SDS011;66638;50.050;21.124;2023-02-11T17:34:07;38.20;;;19.80;;
77524;SDS011;66638;50.050;21.124;2023-02-11T17:36:54;33.60;;;18.60;;
77524;SDS011;66638;50.050;21.124;2023-02-11T17:39:43;31.90;;;17.20;;
77524;SDS011;66638;50.050;21.124;2023-02-11T17:42:31;34.60;;;17.10;;
77524;SDS011;66638;50.050;21.124;2023-02-11T17:45:18;34.50;;;17.60;;
77524;SDS011;66638;50.050;21.124;2023-02-11T17:50:53;28.40;;;14.00;;
77524;SDS011;66638;50.050;21.124;2023-02-11T17:53:40;30.30;;;16.90;;
77524;SDS011;66638;50.050;21.124;2023-02-11T17:59:16;29.60;;;18.40;;
77524;SDS011;66638;50.050;21.124;2023-02-11T18:04:51;37.00;;;18.40;;
77524;SDS011;66638;50.050;21.124;2023-02-11T18:07:39;32.20;;;17.20;;
77524;SDS011;66638;50.050;21.124;2023-02-11T18:10:26;34.30;;;17.40;;
77524;SDS011;66638;50.050;21.124;2023-02-11T18:16:02;38.00;;;18.80;;
77524;SDS011;66638;50.050;21.124;2023-02-11T18:18:50;34.70;;;19.10;;
77524;SDS011;66638;50.050;21.124;2023-02-11T18:21:38;39.70;;;19.70;;
77524;SDS011;66638;50.050;21.124;2023-02-11T18:27:12;43.40;;;19.20;;
77524;SDS011;66638;50.050;21.124;2023-02-11T18:30:00;44.00;;;22.90;;
77524;SDS011;66638;50.050;21.124;2023-02-11T18:32:52;44.70;;;21.50;;
77524;SDS011;66638;50.050;21.124;2023-02-11T18:35:41;40.00;;;20.20;;
77524;SDS011;66638;50.050;21.124;2023-02-11T18:38:29;33.00;;;17.70;;
77524;SDS011;66638;50.050;21.124;2023-02-11T18:44:04;33.20;;;17.40;;
77524;SDS011;66638;50.050;21.124;2023-02-11T18:46:52;33.50;;;18.20;;
77524;SDS011;66638;50.050;21.124;2023-02-11T18:49:39;47.80;;;24.70;;
77524;SDS011;66638;50.050;21.124;2023-02-11T18:52:27;37.50;;;20.50;;
77524;SDS011;66638;50.050;21.124;2023-02-11T18:58:01;40.00;;;21.50;;
77524;SDS011;66638;50.050;21.124;2023-02-11T19:00:49;38.90;;;19.30;;
77524;SDS011;66638;50.050;21.124;2023-02-11T19:03:40;35.70;;;20.70;;
77524;SDS011;66638;50.050;21.124;2023-02-11T19:06:29;31.50;;;16.80;;
77524;SDS011;66638;50.050;21.124;2023-02-11T19:09:19;26.10;;;13.80;;
77524;SDS011;66638;50.050;21.124;2023-02-11T19:12:06;34.70;;;19.30;;
77524;SDS011;66638;50.050;21.124;2023-02-11T19:14:55;41.30;;;22.00;;
77524;SDS011;66638;50.050;21.124;2023-02-11T19:17:45;40.90;;;20.30;;
77524;SDS011;66638;50.050;21.124;2023-02-11T19:20:32;31.20;;;17.60;;